createdAt,value
2018-04-16T00:00:07.908Z,998.49
2018-04-16T00:00:48.430Z,998.49
2018-04-16T00:01:28.939Z,998.47
2018-04-16T00:02:09.460Z,998.48
2018-04-16T00:02:49.983Z,998.49
2018-04-16T00:03:30.529Z,998.46
2018-04-16T00:04:11.055Z,998.53
2018-04-16T00:04:51.595Z,998.5
2018-04-16T00:05:32.108Z,998.46
2018-04-16T00:06:12.665Z,998.5
2018-04-16T00:06:53.175Z,998.48
2018-04-16T00:07:33.689Z,998.44
2018-04-16T00:08:14.211Z,998.44
2018-04-16T00:08:54.741Z,998.45
2018-04-16T00:09:35.261Z,998.45
2018-04-16T00:10:15.786Z,998.39
2018-04-16T00:10:56.310Z,998.44
2018-04-16T00:11:36.838Z,998.41
2018-04-16T00:12:17.351Z,998.4
2018-04-16T00:12:57.870Z,998.38
2018-04-16T00:13:38.546Z,998.35
2018-04-16T00:14:19.061Z,998.37
2018-04-16T00:14:59.563Z,998.42
2018-04-16T00:15:40.068Z,998.35
2018-04-16T00:16:20.594Z,998.34
2018-04-16T00:17:01.118Z,998.38
2018-04-16T00:17:41.646Z,998.39
2018-04-16T00:18:22.160Z,998.43
2018-04-16T00:19:02.686Z,998.42
2018-04-16T00:19:43.199Z,998.41
2018-04-16T00:20:23.716Z,998.42
2018-04-16T00:21:04.266Z,998.41
2018-04-16T00:21:44.782Z,998.42
2018-04-16T00:22:25.299Z,998.44
2018-04-16T00:23:05.823Z,998.43
2018-04-16T00:23:46.371Z,998.42
2018-04-16T00:24:26.900Z,998.45
2018-04-16T00:25:07.412Z,998.45
2018-04-16T00:25:47.915Z,998.39
2018-04-16T00:26:28.434Z,998.4
2018-04-16T00:27:08.954Z,998.39
2018-04-16T00:27:49.462Z,998.43
2018-04-16T00:28:30.001Z,998.45
2018-04-16T00:29:10.499Z,998.42
2018-04-16T00:29:51.029Z,998.45
2018-04-16T00:30:31.564Z,998.46
2018-04-16T00:31:12.120Z,998.4
2018-04-16T00:31:52.661Z,998.47
2018-04-16T00:32:33.177Z,998.46
2018-04-16T00:33:14.223Z,998.47
2018-04-16T00:33:54.761Z,998.47
2018-04-16T00:34:35.281Z,998.47
2018-04-16T00:35:15.792Z,998.49
2018-04-16T00:35:56.325Z,998.53
2018-04-16T00:36:36.858Z,998.5
2018-04-16T00:37:17.380Z,998.53
2018-04-16T00:37:57.916Z,998.55
2018-04-16T00:38:38.452Z,998.55
2018-04-16T00:39:18.970Z,998.58
2018-04-16T00:39:59.480Z,998.6
2018-04-16T00:40:39.998Z,998.56
2018-04-16T00:41:20.523Z,998.59
2018-04-16T00:42:01.033Z,998.58
2018-04-16T00:42:41.556Z,998.6
2018-04-16T00:43:22.073Z,998.63
2018-04-16T00:44:02.592Z,998.66
2018-04-16T00:44:43.114Z,998.65
2018-04-16T00:45:23.647Z,998.64
2018-04-16T00:46:04.160Z,998.65
2018-04-16T00:46:44.678Z,998.68
2018-04-16T00:47:25.218Z,998.65
2018-04-16T00:48:05.746Z,998.61
2018-04-16T00:48:46.268Z,998.62
2018-04-16T00:49:26.786Z,998.63
2018-04-16T00:50:07.317Z,998.66
2018-04-16T00:50:47.833Z,998.63
2018-04-16T00:51:28.365Z,998.65
2018-04-16T00:52:08.887Z,998.71
2018-04-16T00:52:49.402Z,998.7
2018-04-16T00:53:29.934Z,998.68
2018-04-16T00:54:10.467Z,998.64
2018-04-16T00:54:50.981Z,998.67
2018-04-16T00:55:31.507Z,998.69
2018-04-16T00:56:12.035Z,998.67
2018-04-16T00:56:52.561Z,998.68
2018-04-16T00:57:33.085Z,998.7
2018-04-16T00:58:13.626Z,998.68
2018-04-16T00:58:54.154Z,998.69
2018-04-16T00:59:34.670Z,998.65
2018-04-16T01:00:15.185Z,998.68
2018-04-16T01:00:55.711Z,998.66
2018-04-16T01:01:36.235Z,998.7
2018-04-16T01:02:16.762Z,998.63
2018-04-16T01:02:57.279Z,998.65
2018-04-16T01:03:37.824Z,998.63
2018-04-16T01:04:18.353Z,998.65
2018-04-16T01:04:58.869Z,998.63
2018-04-16T01:05:39.405Z,998.62
2018-04-16T01:06:19.929Z,998.63
2018-04-16T01:07:00.452Z,998.65
2018-04-16T01:07:40.971Z,998.61
2018-04-16T01:08:21.495Z,998.61
2018-04-16T01:09:02.020Z,998.65
2018-04-16T01:09:42.534Z,998.66
2018-04-16T01:10:23.048Z,998.67
2018-04-16T01:11:03.993Z,998.65
2018-04-16T01:11:44.145Z,998.64
2018-04-16T01:12:24.674Z,998.65
2018-04-16T01:13:05.183Z,998.63
2018-04-16T01:13:45.700Z,998.62
2018-04-16T01:14:26.228Z,998.62
2018-04-16T01:15:06.779Z,998.65
2018-04-16T01:15:47.277Z,998.63
2018-04-16T01:16:27.791Z,998.63
2018-04-16T01:17:08.318Z,998.6
2018-04-16T01:17:48.833Z,998.63
2018-04-16T01:18:29.359Z,998.62
2018-04-16T01:19:09.884Z,998.58
2018-04-16T01:19:50.405Z,998.59
2018-04-16T01:20:30.927Z,998.55
2018-04-16T01:21:11.459Z,998.63
2018-04-16T01:21:51.985Z,998.58
2018-04-16T01:22:32.496Z,998.56
2018-04-16T01:23:13.161Z,998.59
2018-04-16T01:23:53.528Z,998.57
2018-04-16T01:24:34.054Z,998.63
2018-04-16T01:25:14.567Z,998.6
2018-04-16T01:25:55.128Z,998.62
2018-04-16T01:26:35.658Z,998.61
2018-04-16T01:27:16.177Z,998.61
2018-04-16T01:27:56.699Z,998.54
2018-04-16T01:28:37.210Z,998.58
2018-04-16T01:29:17.728Z,998.59
2018-04-16T01:29:58.256Z,998.63
2018-04-16T01:30:38.778Z,998.61
2018-04-16T01:31:19.297Z,998.65
2018-04-16T01:31:59.828Z,998.64
2018-04-16T01:32:40.354Z,998.63
2018-04-16T01:33:20.870Z,998.68
2018-04-16T01:34:01.397Z,998.66
2018-04-16T01:34:41.918Z,998.68
2018-04-16T01:35:22.441Z,998.67
2018-04-16T01:36:02.969Z,998.65
2018-04-16T01:36:43.505Z,998.65
2018-04-16T01:37:24.031Z,998.67
2018-04-16T01:38:04.547Z,998.68
2018-04-16T01:38:45.075Z,998.66
2018-04-16T01:39:25.610Z,998.67
2018-04-16T01:40:06.194Z,998.69
2018-04-16T01:40:46.714Z,998.66
2018-04-16T01:41:27.235Z,998.7
2018-04-16T01:42:07.757Z,998.75
2018-04-16T01:42:48.281Z,998.71
2018-04-16T01:43:28.799Z,998.73
2018-04-16T01:44:09.342Z,998.69
2018-04-16T01:44:49.863Z,998.76
2018-04-16T01:45:30.400Z,998.77
2018-04-16T01:46:10.914Z,998.77
2018-04-16T01:46:51.436Z,998.78
2018-04-16T01:47:31.971Z,998.8
2018-04-16T01:48:12.497Z,998.77
2018-04-16T01:48:53.001Z,998.77
2018-04-16T01:49:33.519Z,998.79
2018-04-16T01:50:14.036Z,998.74
2018-04-16T01:50:54.551Z,998.75
2018-04-16T01:51:35.079Z,998.78
2018-04-16T01:52:15.599Z,998.71
2018-04-16T01:52:56.116Z,998.76
2018-04-16T01:53:36.639Z,998.73
2018-04-16T01:54:17.153Z,998.74
2018-04-16T01:54:57.675Z,998.76
2018-04-16T01:55:38.202Z,998.74
2018-04-16T01:56:18.724Z,998.79
2018-04-16T01:56:59.260Z,998.77
2018-04-16T01:57:39.779Z,998.78
2018-04-16T01:58:20.307Z,998.79
2018-04-16T01:59:00.818Z,998.79
2018-04-16T01:59:41.340Z,998.81
2018-04-16T02:00:21.854Z,998.77
2018-04-16T02:01:02.369Z,998.83
2018-04-16T02:01:42.887Z,998.84
2018-04-16T02:02:23.405Z,998.85
2018-04-16T02:03:03.935Z,998.83
2018-04-16T02:03:44.452Z,998.81
2018-04-16T02:04:24.981Z,998.84
2018-04-16T02:05:05.505Z,998.87
2018-04-16T02:05:46.026Z,998.84
2018-04-16T02:06:26.535Z,998.85
2018-04-16T02:07:07.055Z,998.85
2018-04-16T02:07:47.573Z,998.87
2018-04-16T02:08:28.083Z,998.89
2018-04-16T02:09:08.607Z,998.86
2018-04-16T02:09:49.122Z,998.88
2018-04-16T02:10:29.644Z,998.88
2018-04-16T02:11:10.157Z,998.92
2018-04-16T02:11:50.679Z,998.94
2018-04-16T02:12:31.196Z,998.85
2018-04-16T02:13:11.708Z,998.92
2018-04-16T02:13:52.230Z,998.93
2018-04-16T02:14:32.749Z,998.9
2018-04-16T02:15:13.262Z,998.93
2018-04-16T02:15:53.793Z,998.92
2018-04-16T02:16:34.315Z,998.96
2018-04-16T02:17:14.841Z,998.98
2018-04-16T02:17:55.354Z,998.95
2018-04-16T02:18:35.888Z,998.95
2018-04-16T02:19:16.416Z,998.96
2018-04-16T02:19:56.937Z,998.95
2018-04-16T02:20:37.458Z,998.98
2018-04-16T02:21:17.993Z,998.99
2018-04-16T02:21:58.519Z,998.96
2018-04-16T02:22:39.062Z,998.97
2018-04-16T02:23:19.575Z,998.98
2018-04-16T02:24:00.095Z,998.98
2018-04-16T02:24:40.607Z,998.93
2018-04-16T02:25:21.123Z,998.97
2018-04-16T02:26:01.653Z,998.93
2018-04-16T02:26:42.171Z,998.93
2018-04-16T02:27:22.693Z,998.93
2018-04-16T02:28:03.213Z,998.95
2018-04-16T02:28:43.824Z,998.93
2018-04-16T02:29:24.328Z,998.94
2018-04-16T02:30:04.855Z,998.95
2018-04-16T02:30:45.373Z,998.96
2018-04-16T02:31:25.890Z,998.93
2018-04-16T02:32:06.414Z,998.96
2018-04-16T02:32:46.938Z,998.95
2018-04-16T02:33:27.452Z,998.97
2018-04-16T02:34:07.990Z,998.92
2018-04-16T02:34:48.503Z,998.96
2018-04-16T02:35:29.077Z,998.91
2018-04-16T02:36:09.602Z,998.93
2018-04-16T02:36:50.121Z,998.9
2018-04-16T02:37:30.632Z,998.96
2018-04-16T02:38:11.149Z,998.97
2018-04-16T02:38:51.672Z,998.97
2018-04-16T02:39:32.187Z,998.96
2018-04-16T02:40:12.745Z,998.98
2018-04-16T02:40:53.260Z,998.99
2018-04-16T02:41:33.779Z,998.96
2018-04-16T02:42:14.508Z,998.93
2018-04-16T02:42:55.024Z,998.97
2018-04-16T02:43:35.532Z,998.96
2018-04-16T02:44:16.050Z,998.99
2018-04-16T02:44:56.577Z,998.96
2018-04-16T02:45:37.207Z,999
2018-04-16T02:46:17.714Z,998.97
2018-04-16T02:46:58.230Z,998.98
2018-04-16T02:47:38.754Z,999.03
2018-04-16T02:48:19.269Z,999.03
2018-04-16T02:48:59.787Z,999
2018-04-16T02:49:40.306Z,999.02
2018-04-16T02:50:20.821Z,999
2018-04-16T02:51:01.365Z,999.07
2018-04-16T02:51:41.877Z,999.04
2018-04-16T02:52:22.394Z,999.03
2018-04-16T02:53:02.926Z,999.06
2018-04-16T02:53:43.457Z,999.01
2018-04-16T02:54:23.977Z,999.06
2018-04-16T02:55:04.501Z,999.09
2018-04-16T02:55:45.010Z,999.09
2018-04-16T02:56:25.523Z,999.05
2018-04-16T02:57:06.039Z,999.07
2018-04-16T02:57:46.554Z,999.05
2018-04-16T02:58:27.070Z,999.09
2018-04-16T02:59:07.593Z,999.03
2018-04-16T02:59:48.116Z,999.09
2018-04-16T03:00:28.634Z,999.06
2018-04-16T03:01:09.159Z,999.12
2018-04-16T03:01:49.687Z,999.09
2018-04-16T03:02:30.192Z,999.12
2018-04-16T03:03:10.718Z,999.12
2018-04-16T03:03:51.235Z,999.11
2018-04-16T03:04:31.759Z,999.15
2018-04-16T03:05:12.284Z,999.17
2018-04-16T03:05:52.805Z,999.18
2018-04-16T03:06:33.315Z,999.18
2018-04-16T03:07:13.838Z,999.19
2018-04-16T03:07:54.365Z,999.24
2018-04-16T03:08:34.884Z,999.17
2018-04-16T03:09:15.393Z,999.17
2018-04-16T03:09:55.913Z,999.27
2018-04-16T03:10:36.441Z,999.22
2018-04-16T03:11:16.944Z,999.3
2018-04-16T03:11:57.474Z,999.22
2018-04-16T03:12:37.992Z,999.3
2018-04-16T03:13:18.509Z,999.29
2018-04-16T03:13:59.029Z,999.28
2018-04-16T03:14:39.547Z,999.27
2018-04-16T03:15:20.065Z,999.3
2018-04-16T03:16:00.578Z,999.32
2018-04-16T03:16:41.098Z,999.3
2018-04-16T03:17:21.625Z,999.29
2018-04-16T03:18:02.144Z,999.31
2018-04-16T03:18:42.671Z,999.3
2018-04-16T03:19:23.191Z,999.29
2018-04-16T03:20:03.709Z,999.27
2018-04-16T03:20:44.250Z,999.35
2018-04-16T03:21:24.772Z,999.32
2018-04-16T03:22:05.283Z,999.28
2018-04-16T03:22:45.803Z,999.3
2018-04-16T03:23:26.331Z,999.34
2018-04-16T03:24:06.851Z,999.32
2018-04-16T03:24:47.375Z,999.32
2018-04-16T03:25:27.917Z,999.31
2018-04-16T03:26:08.431Z,999.34
2018-04-16T03:26:48.948Z,999.35
2018-04-16T03:27:29.462Z,999.34
2018-04-16T03:28:09.991Z,999.37
2018-04-16T03:28:50.525Z,999.38
2018-04-16T03:29:31.034Z,999.38
2018-04-16T03:30:11.549Z,999.34
2018-04-16T03:30:52.106Z,999.36
2018-04-16T03:31:32.619Z,999.38
2018-04-16T03:32:13.142Z,999.35
2018-04-16T03:32:53.668Z,999.36
2018-04-16T03:33:34.179Z,999.36
2018-04-16T03:34:15.058Z,999.36
2018-04-16T03:34:55.579Z,999.35
2018-04-16T03:35:36.089Z,999.33
2018-04-16T03:36:20.480Z,999.36
2018-04-16T03:37:01.001Z,999.37
2018-04-16T03:37:41.524Z,999.37
2018-04-16T03:38:22.053Z,999.33
2018-04-16T03:39:02.573Z,999.37
2018-04-16T03:39:43.086Z,999.37
2018-04-16T03:40:23.602Z,999.31
2018-04-16T03:41:04.118Z,999.33
2018-04-16T03:41:44.630Z,999.42
2018-04-16T03:42:25.157Z,999.32
2018-04-16T03:43:05.674Z,999.37
2018-04-16T03:43:46.188Z,999.4
2018-04-16T03:44:26.720Z,999.38
2018-04-16T03:45:07.237Z,999.43
2018-04-16T03:45:47.761Z,999.44
2018-04-16T03:46:28.270Z,999.42
2018-04-16T03:47:08.787Z,999.42
2018-04-16T03:47:49.309Z,999.4
2018-04-16T03:48:29.823Z,999.39
2018-04-16T03:49:10.346Z,999.42
2018-04-16T03:49:50.861Z,999.4
2018-04-16T03:50:31.376Z,999.41
2018-04-16T03:51:11.893Z,999.38
2018-04-16T03:51:52.404Z,999.43
2018-04-16T03:52:32.923Z,999.43
2018-04-16T03:53:13.434Z,999.41
2018-04-16T03:53:53.952Z,999.39
2018-04-16T03:54:34.467Z,999.41
2018-04-16T03:55:15.028Z,999.45
2018-04-16T03:55:55.498Z,999.41
2018-04-16T03:56:36.030Z,999.41
2018-04-16T03:57:16.541Z,999.43
2018-04-16T03:57:57.058Z,999.45
2018-04-16T03:58:37.571Z,999.45
2018-04-16T03:59:18.090Z,999.47
2018-04-16T03:59:58.600Z,999.46
2018-04-16T04:00:39.119Z,999.55
2018-04-16T04:01:19.653Z,999.53
2018-04-16T04:02:00.154Z,999.53
2018-04-16T04:02:40.668Z,999.57
2018-04-16T04:03:21.191Z,999.55
2018-04-16T04:04:01.708Z,999.54
2018-04-16T04:04:42.224Z,999.54
2018-04-16T04:05:22.747Z,999.51
2018-04-16T04:06:03.288Z,999.55
2018-04-16T04:06:43.819Z,999.54
2018-04-16T04:07:24.346Z,999.56
2018-04-16T04:08:04.939Z,999.55
2018-04-16T04:08:45.396Z,999.62
2018-04-16T04:09:25.909Z,999.61
2018-04-16T04:10:06.413Z,999.59
2018-04-16T04:10:46.938Z,999.58
2018-04-16T04:11:27.466Z,999.56
2018-04-16T04:12:07.988Z,999.58
2018-04-16T04:12:48.533Z,999.57
2018-04-16T04:13:29.048Z,999.62
2018-04-16T04:14:09.575Z,999.59
2018-04-16T04:14:50.122Z,999.63
2018-04-16T04:15:30.633Z,999.64
2018-04-16T04:16:11.145Z,999.65
2018-04-16T04:16:51.766Z,999.63
2018-04-16T04:17:32.193Z,999.67
2018-04-16T04:18:12.718Z,999.67
2018-04-16T04:18:53.248Z,999.66
2018-04-16T04:19:33.766Z,999.68
2018-04-16T04:20:14.283Z,999.7
2018-04-16T04:20:54.805Z,999.68
2018-04-16T04:21:35.328Z,999.61
2018-04-16T04:22:15.870Z,999.66
2018-04-16T04:22:56.386Z,999.61
2018-04-16T04:23:36.910Z,999.64
2018-04-16T04:24:17.424Z,999.58
2018-04-16T04:24:58.014Z,999.63
2018-04-16T04:25:38.476Z,999.63
2018-04-16T04:26:19.005Z,999.66
2018-04-16T04:26:59.531Z,999.65
2018-04-16T04:27:40.044Z,999.69
2018-04-16T04:28:20.572Z,999.64
2018-04-16T04:29:01.087Z,999.65
2018-04-16T04:29:41.604Z,999.63
2018-04-16T04:30:22.118Z,999.69
2018-04-16T04:31:02.646Z,999.71
2018-04-16T04:31:43.167Z,999.67
2018-04-16T04:32:23.672Z,999.7
2018-04-16T04:33:04.185Z,999.73
2018-04-16T04:33:44.719Z,999.76
2018-04-16T04:34:25.243Z,999.71
2018-04-16T04:35:05.759Z,999.75
2018-04-16T04:35:46.280Z,999.73
2018-04-16T04:36:26.790Z,999.76
2018-04-16T04:37:07.304Z,999.74
2018-04-16T04:37:47.834Z,999.73
2018-04-16T04:38:28.360Z,999.72
2018-04-16T04:39:08.873Z,999.75
2018-04-16T04:39:49.391Z,999.76
2018-04-16T04:40:29.908Z,999.74
2018-04-16T04:41:10.440Z,999.77
2018-04-16T04:41:50.958Z,999.79
2018-04-16T04:42:31.475Z,999.75
2018-04-16T04:43:12.002Z,999.76
2018-04-16T04:43:52.531Z,999.75
2018-04-16T04:44:33.049Z,999.76
2018-04-16T04:45:13.618Z,999.79
2018-04-16T04:45:54.077Z,999.78
2018-04-16T04:46:34.599Z,999.78
2018-04-16T04:47:15.128Z,999.8
2018-04-16T04:47:55.649Z,999.82
2018-04-16T04:48:36.170Z,999.8
2018-04-16T04:49:16.698Z,999.81
2018-04-16T04:49:57.229Z,999.82
2018-04-16T04:50:37.741Z,999.84
2018-04-16T04:51:18.256Z,999.83
2018-04-16T04:51:58.777Z,999.88
2018-04-16T04:52:39.293Z,999.91
2018-04-16T04:53:19.809Z,999.9
2018-04-16T04:54:00.698Z,999.88
2018-04-16T04:54:40.968Z,999.91
2018-04-16T04:55:21.489Z,999.92
2018-04-16T04:56:02.015Z,999.88
2018-04-16T04:56:42.541Z,999.86
2018-04-16T04:57:23.066Z,999.9
2018-04-16T04:58:03.599Z,999.92
2018-04-16T04:58:44.118Z,999.89
2018-04-16T04:59:24.634Z,999.88
2018-04-16T05:00:05.162Z,999.92
2018-04-16T05:00:45.692Z,999.91
2018-04-16T05:01:26.212Z,999.9
2018-04-16T05:02:06.722Z,999.98
2018-04-16T05:02:47.263Z,999.95
2018-04-16T05:03:27.790Z,999.95
2018-04-16T05:04:08.305Z,999.99
2018-04-16T05:04:48.821Z,999.95
2018-04-16T05:05:29.337Z,999.98
2018-04-16T05:06:09.855Z,999.95
2018-04-16T05:06:50.363Z,999.98
2018-04-16T05:07:30.880Z,999.99
2018-04-16T05:08:11.404Z,1000
2018-04-16T05:08:51.915Z,1000.02
2018-04-16T05:09:32.441Z,999.98
2018-04-16T05:10:12.963Z,1000
2018-04-16T05:10:53.472Z,1000.01
2018-04-16T05:11:33.990Z,1000.03
2018-04-16T05:12:14.503Z,1000.01
2018-04-16T05:12:55.048Z,1000.05
2018-04-16T05:13:35.578Z,1000.07
2018-04-16T05:14:16.105Z,1000.09
2018-04-16T05:14:56.641Z,1000.08
2018-04-16T05:15:37.156Z,1000.1
2018-04-16T05:16:17.683Z,1000.14
2018-04-16T05:16:58.205Z,1000.12
2018-04-16T05:17:38.741Z,1000.15
2018-04-16T05:18:19.245Z,1000.15
2018-04-16T05:18:59.778Z,1000.16
2018-04-16T05:19:40.304Z,1000.22
2018-04-16T05:20:20.843Z,1000.19
2018-04-16T05:21:01.361Z,1000.2
2018-04-16T05:21:41.865Z,1000.24
2018-04-16T05:22:22.395Z,1000.23
2018-04-16T05:23:02.909Z,1000.21
2018-04-16T05:23:43.543Z,1000.23
2018-04-16T05:24:23.953Z,1000.19
2018-04-16T05:25:04.476Z,1000.2
2018-04-16T05:25:45.005Z,1000.2
2018-04-16T05:26:25.523Z,1000.22
2018-04-16T05:27:06.046Z,1000.2
2018-04-16T05:27:46.569Z,1000.18
2018-04-16T05:28:27.103Z,1000.25
2018-04-16T05:29:07.643Z,1000.22
2018-04-16T05:29:48.162Z,1000.23
2018-04-16T05:30:28.693Z,1000.23
2018-04-16T05:31:09.236Z,1000.26
2018-04-16T05:31:49.757Z,1000.25
2018-04-16T05:32:30.308Z,1000.23
2018-04-16T05:33:10.788Z,1000.27
2018-04-16T05:33:51.305Z,1000.25
2018-04-16T05:34:31.837Z,1000.29
2018-04-16T05:35:12.356Z,1000.33
2018-04-16T05:35:52.869Z,1000.28
2018-04-16T05:36:33.400Z,1000.33
2018-04-16T05:37:13.929Z,1000.36
2018-04-16T05:37:54.455Z,1000.34
2018-04-16T05:38:34.972Z,1000.35
2018-04-16T05:39:15.497Z,1000.33
2018-04-16T05:39:56.024Z,1000.34
2018-04-16T05:40:36.573Z,1000.33
2018-04-16T05:41:17.096Z,1000.38
2018-04-16T05:41:57.615Z,1000.37
2018-04-16T05:42:38.152Z,1000.43
2018-04-16T05:43:18.711Z,1000.39
2018-04-16T05:43:59.244Z,1000.47
2018-04-16T05:44:39.760Z,1000.45
2018-04-16T05:45:20.279Z,1000.44
2018-04-16T05:46:00.993Z,1000.43
2018-04-16T05:46:41.453Z,1000.51
2018-04-16T05:47:21.974Z,1000.49
2018-04-16T05:48:02.500Z,1000.56
2018-04-16T05:48:43.022Z,1000.54
2018-04-16T05:49:23.549Z,1000.55
2018-04-16T05:50:04.078Z,1000.6
2018-04-16T05:50:44.604Z,1000.61
2018-04-16T05:51:25.122Z,1000.59
2018-04-16T05:52:05.655Z,1000.6
2018-04-16T05:52:46.183Z,1000.63
2018-04-16T05:53:26.750Z,1000.66
2018-04-16T05:54:07.268Z,1000.6
2018-04-16T05:54:47.822Z,1000.61
2018-04-16T05:55:28.349Z,1000.64
2018-04-16T05:56:08.871Z,1000.61
2018-04-16T05:56:49.407Z,1000.62
2018-04-16T05:57:30.765Z,1000.69
2018-04-16T05:58:10.600Z,1000.69
2018-04-16T05:58:51.128Z,1000.7
2018-04-16T05:59:31.680Z,1000.68
2018-04-16T06:00:12.343Z,1000.68
2018-04-16T06:00:52.850Z,1000.67
2018-04-16T06:01:33.410Z,1000.71
2018-04-16T06:02:13.923Z,1000.68
2018-04-16T06:02:54.427Z,1000.7
2018-04-16T06:03:34.960Z,1000.72
2018-04-16T06:04:15.889Z,1000.75
2018-04-16T06:04:56.413Z,1000.72
2018-04-16T06:05:37.297Z,1000.74
2018-04-16T06:06:17.836Z,1000.76
2018-04-16T06:06:58.370Z,1000.78
2018-04-16T06:07:38.899Z,1000.73
2018-04-16T06:08:19.418Z,1000.8
2018-04-16T06:08:59.932Z,1000.78
2018-04-16T06:09:40.557Z,1000.78
2018-04-16T06:12:17.388Z,1000.83
2018-04-16T06:12:57.981Z,1000.86
2018-04-16T06:13:38.553Z,1000.87
2018-04-16T06:14:19.048Z,1000.85
2018-04-16T06:14:59.571Z,1000.86
2018-04-16T06:15:40.146Z,1000.87
2018-04-16T06:16:21.388Z,1000.89
2018-04-16T06:17:02.332Z,1000.89
2018-04-16T06:17:44.545Z,1000.9
2018-04-16T06:18:25.061Z,1000.83
2018-04-16T06:19:05.648Z,1000.83
2018-04-16T06:19:46.190Z,1000.81
2018-04-16T06:20:26.735Z,1000.85
2018-04-16T06:21:07.338Z,1000.89
2018-04-16T06:21:47.853Z,1000.87
2018-04-16T06:22:28.366Z,1000.84
2018-04-16T06:23:09.477Z,1000.88
2018-04-16T06:23:49.394Z,1000.82
2018-04-16T06:24:29.928Z,1000.8
2018-04-16T06:25:10.437Z,1000.82
2018-04-16T06:25:50.968Z,1000.83
2018-04-16T06:26:31.567Z,1000.83
2018-04-16T06:27:12.075Z,1000.79
2018-04-16T06:27:52.647Z,1000.8
2018-04-16T06:28:33.139Z,1000.84
2018-04-16T06:29:13.675Z,1000.83
2018-04-16T06:29:54.188Z,1000.85
2018-04-16T06:30:34.717Z,1000.86
2018-04-16T06:31:15.253Z,1000.87
2018-04-16T06:31:55.780Z,1000.9
2018-04-16T06:32:36.297Z,1000.89
2018-04-16T06:33:16.826Z,1000.92
2018-04-16T06:33:57.345Z,1000.9
2018-04-16T06:34:37.874Z,1000.87
2018-04-16T06:35:18.373Z,1000.87
2018-04-16T06:35:58.897Z,1000.9
2018-04-16T06:36:39.430Z,1000.97
2018-04-16T06:37:19.963Z,1000.9
2018-04-16T06:38:00.506Z,1000.95
2018-04-16T06:38:41.019Z,1000.99
2018-04-16T06:39:21.548Z,1000.95
2018-04-16T06:40:02.079Z,1000.95
2018-04-16T06:40:42.605Z,1000.96
2018-04-16T06:41:23.111Z,1000.99
2018-04-16T06:42:03.650Z,1000.98
2018-04-16T06:42:44.165Z,1001
2018-04-16T06:43:24.676Z,1001.05
2018-04-16T06:44:05.200Z,1001.06
2018-04-16T06:44:45.726Z,1001.1
2018-04-16T06:45:26.254Z,1001.09
2018-04-16T06:46:06.770Z,1001.11
2018-04-16T06:46:47.278Z,1001.12
2018-04-16T06:47:27.807Z,1001.07
2018-04-16T06:48:08.338Z,1001.11
2018-04-16T06:48:48.854Z,1001.1
2018-04-16T06:49:29.422Z,1001.15
2018-04-16T06:50:09.946Z,1001.09
2018-04-16T06:50:50.460Z,1001.1
2018-04-16T06:51:30.973Z,1001.08
2018-04-16T06:52:11.501Z,1001.13
2018-04-16T06:52:52.049Z,1001.08
2018-04-16T06:53:32.554Z,1001.09
2018-04-16T06:54:13.136Z,1001.1
2018-04-16T06:54:53.684Z,1001.08
2018-04-16T06:55:34.204Z,1001.13
2018-04-16T06:56:14.724Z,1001.11
2018-04-16T06:56:55.245Z,1001.11
2018-04-16T06:57:35.769Z,1001.13
2018-04-16T06:58:16.291Z,1001.11
2018-04-16T06:58:56.797Z,1001.11
2018-04-16T06:59:37.324Z,1001.11
2018-04-16T07:00:17.861Z,1001.09
2018-04-16T07:00:58.406Z,1001.12
2018-04-16T07:01:38.944Z,1001.1
2018-04-16T07:02:19.478Z,1001.07
2018-04-16T07:03:00.002Z,1001.05
2018-04-16T07:03:40.518Z,1001.08
2018-04-16T07:04:21.061Z,1001.07
2018-04-16T07:05:01.576Z,1001.08
2018-04-16T07:05:42.101Z,1001.05
2018-04-16T07:06:22.630Z,1001.12
2018-04-16T07:07:03.312Z,1001.07
2018-04-16T07:07:43.845Z,1001.1
2018-04-16T07:08:24.371Z,1001.08
2018-04-16T07:09:04.903Z,1001.09
2018-04-16T07:09:45.446Z,1001.12
2018-04-16T07:10:25.939Z,1001.12
2018-04-16T07:11:06.469Z,1001.13
2018-04-16T07:11:46.980Z,1001.09
2018-04-16T07:12:27.500Z,1001.12
2018-04-16T07:13:08.020Z,1001.1
2018-04-16T07:13:48.547Z,1001.07
2018-04-16T07:14:29.077Z,1001.07
2018-04-16T07:15:09.626Z,1001.09
2018-04-16T07:15:50.190Z,1001.08
2018-04-16T07:16:30.667Z,1001.06
2018-04-16T07:17:11.202Z,1001.11
2018-04-16T07:17:51.712Z,1001.09
2018-04-16T07:18:32.228Z,1001.11
2018-04-16T07:19:12.752Z,1001.12
2018-04-16T07:19:53.262Z,1001.11
2018-04-16T07:20:33.794Z,1001.13
2018-04-16T07:21:14.320Z,1001.16
2018-04-16T07:21:54.850Z,1001.2
2018-04-16T07:22:35.383Z,1001.17
2018-04-16T07:23:15.904Z,1001.18
2018-04-16T07:23:56.408Z,1001.11
2018-04-16T07:24:36.924Z,1001.16
2018-04-16T07:25:17.445Z,1001.14
2018-04-16T07:25:57.968Z,1001.12
2018-04-16T07:26:38.479Z,1001.15
2018-04-16T07:27:19.029Z,1001.16
2018-04-16T07:27:59.540Z,1001.15
2018-04-16T07:28:40.056Z,1001.19
2018-04-16T07:29:20.568Z,1001.14
2018-04-16T07:30:01.087Z,1001.2
2018-04-16T07:30:41.617Z,1001.16
2018-04-16T07:31:22.160Z,1001.16
2018-04-16T07:32:02.712Z,1001.14
2018-04-16T07:32:43.237Z,1001.12
2018-04-16T07:33:23.760Z,1001.14
2018-04-16T07:34:04.272Z,1001.12
2018-04-16T07:34:44.790Z,1001.12
2018-04-16T07:35:25.316Z,1001.11
2018-04-16T07:36:05.835Z,1001.17
2018-04-16T07:36:46.407Z,1001.15
2018-04-16T07:37:26.901Z,1001.14
2018-04-16T07:38:07.444Z,1001.11
2018-04-16T07:38:47.937Z,1001.17
2018-04-16T07:39:28.466Z,1001.18
2018-04-16T07:40:08.979Z,1001.18
2018-04-16T07:40:49.474Z,1001.19
2018-04-16T07:41:30.012Z,1001.19
2018-04-16T07:42:10.538Z,1001.17
2018-04-16T07:42:51.047Z,1001.17
2018-04-16T07:43:31.575Z,1001.15
2018-04-16T07:44:12.142Z,1001.15
2018-04-16T07:44:52.641Z,1001.16
2018-04-16T07:45:33.167Z,1001.15
2018-04-16T07:46:13.708Z,1001.12
2018-04-16T07:46:54.237Z,1001.18
2018-04-16T07:47:34.741Z,1001.11
2018-04-16T07:48:15.261Z,1001.14
2018-04-16T07:48:55.778Z,1001.11
2018-04-16T07:49:36.315Z,1001.16
2018-04-16T07:50:16.822Z,1001.18
2018-04-16T07:50:57.360Z,1001.18
2018-04-16T07:51:37.879Z,1001.17
2018-04-16T07:52:18.394Z,1001.18
2018-04-16T07:52:58.926Z,1001.16
2018-04-16T07:53:39.445Z,1001.15
2018-04-16T07:54:19.956Z,1001.17
2018-04-16T07:55:00.481Z,1001.17
2018-04-16T07:55:41.005Z,1001.18
2018-04-16T07:56:21.521Z,1001.23
2018-04-16T07:57:02.035Z,1001.19
2018-04-16T07:57:42.557Z,1001.19
2018-04-16T07:58:23.075Z,1001.2
2018-04-16T07:59:03.626Z,1001.23
2018-04-16T07:59:44.143Z,1001.19
2018-04-16T08:00:24.661Z,1001.25
2018-04-16T08:01:05.178Z,1001.27
2018-04-16T08:01:45.694Z,1001.26
2018-04-16T08:02:26.214Z,1001.28
2018-04-16T08:03:06.736Z,1001.26
2018-04-16T08:03:47.289Z,1001.27
2018-04-16T08:04:27.798Z,1001.27
2018-04-16T08:05:08.334Z,1001.29
2018-04-16T08:05:48.859Z,1001.3
2018-04-16T08:06:29.361Z,1001.28
2018-04-16T08:07:09.876Z,1001.29
2018-04-16T08:07:50.401Z,1001.29
2018-04-16T08:08:30.921Z,1001.28
2018-04-16T08:09:11.441Z,1001.27
2018-04-16T08:09:51.948Z,1001.33
2018-04-16T08:10:32.476Z,1001.31
2018-04-16T08:11:12.997Z,1001.31
2018-04-16T08:11:53.508Z,1001.29
2018-04-16T08:12:34.030Z,1001.29
2018-04-16T08:13:14.541Z,1001.3
2018-04-16T08:13:55.072Z,1001.3
2018-04-16T08:14:35.589Z,1001.29
2018-04-16T08:15:16.115Z,1001.35
2018-04-16T08:15:56.642Z,1001.3
2018-04-16T08:16:37.160Z,1001.3
2018-04-16T08:17:17.683Z,1001.34
2018-04-16T08:17:58.240Z,1001.3
2018-04-16T08:18:38.752Z,1001.28
2018-04-16T08:19:19.283Z,1001.3
2018-04-16T08:19:59.779Z,1001.33
2018-04-16T08:20:40.301Z,1001.29
2018-04-16T08:21:20.822Z,1001.28
2018-04-16T08:22:01.348Z,1001.31
2018-04-16T08:22:41.860Z,1001.31
2018-04-16T08:23:22.376Z,1001.29